Time;durP1;ratioP1;P1;durP2;ratioP2;P2;SDS_P1;SDS_P2;PMS_P1;PMS_P2;Temp;Humidity;BMP_temperature;BMP_pressure;BME280_temperature;BME280_humidity;BME280_pressure;Samples;Min_cycle;Max_cycle;Signal;HPM_P1;HPM_P2
2023/06/25 00:01:16;;;;;;;;;;;;;;;9.07;100.00;100002.31;4974365;28;19939;-87
2023/06/25 00:03:41;;;;;;;;;;;;;;;8.97;100.00;99995.63;4992155;28;19993;-85
2023/06/25 00:06:07;;;;;;;;;;;;;;;9.02;100.00;100001.63;4975803;28;19925;-88
2023/06/25 00:08:35;;;;;;;;;;;;;;;8.99;100.00;99996.44;4978581;28;20000;-87
2023/06/25 00:11:00;;;;;;;;;;;;;;;9.00;100.00;99998.13;4995519;28;19978;-89
2023/06/25 00:13:26;;;;;;;;;;;;;;;8.99;100.00;99999.06;4994350;28;19972;-84
2023/06/25 00:15:51;;;;;;;;;;;;;;;8.97;100.00;99995.63;4977554;28;19921;-86
2023/06/25 00:18:16;;;;;;;;;;;;;;;9.03;100.00;99988.34;4994990;28;19921;-89
2023/06/25 08:17:19;;;;;;;;;;;;;;;9.03;100.00;99847.38;5376915;22;19987;-86
2023/06/25 08:19:45;;;;;;;;;;;;;;;8.94;100.00;99847.72;5012018;28;19929;-87
2023/06/25 08:22:10;;;;;;;;;;;;;;;9.08;100.00;99846.31;5011990;28;20000;-85
2023/06/25 08:24:35;;;;;;;;;;;;;;;9.11;100.00;99852.41;5011879;28;19929;-86
2023/06/25 08:27:00;;;;;;;;;;;;;;;9.03;100.00;99844.72;5012234;28;19924;-86
2023/06/25 08:29:26;;;;;;;;;;;;;;;9.07;100.00;99836.66;5015482;28;19928;-83
2023/06/25 08:31:51;;;;;;;;;;;;;;;9.12;100.00;99844.41;5013940;28;20368;-84
2023/06/25 08:34:16;;;;;;;;;;;;;;;9.15;100.00;99846.94;4997629;28;19922;-86
2023/06/25 08:36:42;;;;;;;;;;;;;;;9.16;100.00;99840.75;5015505;28;19928;-86
2023/06/25 08:39:07;;;;;;;;;;;;;;;9.02;100.00;99835.97;4997619;28;19986;-87
2023/06/25 08:41:34;;;;;;;;;;;;;;;9.01;100.00;99834.22;4997507;28;19921;-86
2023/06/25 08:44:00;;;;;;;;;;;;;;;8.90;100.00;99833.75;5015090;28;20020;-87
2023/06/25 08:46:25;;;;;;;;;;;;;;;9.00;100.00;99836.91;5014088;28;20009;-87
2023/06/25 08:48:52;;;;;;;;;;;;;;;8.94;100.00;99843.28;5015021;28;19921;-87
2023/06/25 08:51:22;;;;;;;;;;;;;;;8.89;100.00;99838.16;5029743;28;19987;-88
2023/06/25 08:53:47;;;;;;;;;;;;;;;8.79;100.00;99839.41;5015206;28;19918;-87
2023/06/25 08:56:15;;;;;;;;;;;;;;;8.77;100.00;99845.66;5014716;28;20273;-87
2023/06/25 08:58:40;;;;;;;;;;;;;;;8.75;100.00;99837.78;4997325;28;19917;-88
2023/06/25 09:01:05;;;;;;;;;;;;;;;8.75;100.00;99836.94;5013548;28;20395;-86
2023/06/25 09:03:31;;;;;;;;;;;;;;;8.71;100.00;99829.13;4997161;28;19924;-85
2023/06/25 09:05:57;;;;;;;;;;;;;;;8.70;100.00;99842.38;5014695;28;19918;-85
2023/06/25 09:08:23;;;;;;;;;;;;;;;8.71;100.00;99834.41;4997090;28;19937;-84
2023/06/25 09:10:50;;;;;;;;;;;;;;;8.72;100.00;99832.59;5014632;28;20281;-84
2023/06/25 09:13:20;;;;;;;;;;;;;;;8.93;100.00;99832.78;5014206;28;20351;-87
2023/06/25 09:15:45;;;;;;;;;;;;;;;8.98;100.00;99836.13;5013233;28;19924;-86
2023/06/25 09:18:10;;;;;;;;;;;;;;;9.03;100.00;99834.16;4996736;28;19925;-87
2023/06/25 09:20:36;;;;;;;;;;;;;;;9.19;100.00;99837.13;5014488;28;19918;-88
2023/06/25 09:23:04;;;;;;;;;;;;;;;9.04;100.00;99833.25;4996720;28;19963;-89
2023/06/25 09:25:30;;;;;;;;;;;;;;;8.90;100.00;99831.09;4996718;28;20480;-85
2023/06/25 09:27:58;;;;;;;;;;;;;;;8.90;100.00;99816.13;5014245;28;19918;-87
2023/06/25 09:30:24;;;;;;;;;;;;;;;8.81;100.00;99819.09;5014147;28;19921;-87
2023/06/25 09:32:50;;;;;;;;;;;;;;;8.86;100.00;99817.13;5013255;28;20016;-88
2023/06/25 09:35:25;;;;;;;;;;;;;;;8.77;100.00;99822.75;5013990;28;19925;-88
2023/06/25 09:37:51;;;;;;;;;;;;;;;8.90;100.00;99821.41;5013435;28;20020;-88
2023/06/25 09:40:16;;;;;;;;;;;;;;;9.04;100.00;99810.31;4995747;28;20008;-85
2023/06/25 13:02:44;;;;;;;;;;;;;;;9.07;100.00;99632.28;5025104;28;20387;-87
2023/06/25 13:05:09;;;;;;;;;;;;;;;9.03;100.00;99633.28;5024888;28;20012;-87
2023/06/25 13:07:35;;;;;;;;;;;;;;;9.06;100.00;99636.72;5024395;28;19924;-87
2023/06/25 13:10:00;;;;;;;;;;;;;;;9.46;100.00;99639.53;5022997;28;20342;-86
2023/06/25 13:12:25;;;;;;;;;;;;;;;10.09;100.00;99625.47;5023699;28;19923;-87
2023/06/25 13:14:50;;;;;;;;;;;;;;;10.56;100.00;99635.75;5021979;28;19960;-87
2023/06/25 13:17:16;;;;;;;;;;;;;;;10.71;100.00;99629.75;5040377;28;20275;-87
2023/06/25 13:19:41;;;;;;;;;;;;;;;10.21;100.00;99624.94;5024431;28;19920;-87
2023/06/25 13:22:07;;;;;;;;;;;;;;;9.68;100.00;99628.91;5024119;28;19929;-87
2023/06/25 13:24:32;;;;;;;;;;;;;;;9.59;100.00;99624.88;5039509;28;19917;-87
2023/06/25 13:27:01;;;;;;;;;;;;;;;9.46;100.00;99618.38;5024731;28;19921;-88
2023/06/25 13:29:26;;;;;;;;;;;;;;;9.43;100.00;99615.88;5019877;28;19976;-87
2023/06/25 13:31:54;;;;;;;;;;;;;;;9.38;100.00;99607.25;5023112;28;19917;-87
2023/06/25 13:34:20;;;;;;;;;;;;;;;9.33;100.00;99619.78;5016792;28;19991;-88
2023/06/25 13:36:45;;;;;;;;;;;;;;;9.29;100.00;99615.56;5018870;28;19922;-87
2023/06/25 13:39:10;;;;;;;;;;;;;;;9.22;100.00;99615.81;5024154;28;19948;-87
2023/06/25 13:41:35;;;;;;;;;;;;;;;9.22;100.00;99612.28;5023950;28;19918;-88
2023/06/25 13:44:01;;;;;;;;;;;;;;;9.29;100.00;99603.22;5038695;28;20297;-87
2023/06/25 13:46:26;;;;;;;;;;;;;;;9.31;100.00;99603.16;5022654;28;19968;-88
2023/06/25 13:48:51;;;;;;;;;;;;;;;9.27;100.00;99595.34;5032058;28;19970;-88
2023/06/25 13:51:17;;;;;;;;;;;;;;;9.27;100.00;99597.13;5018929;28;19922;-88
2023/06/25 13:53:43;;;;;;;;;;;;;;;9.27;100.00;99591.84;5039022;28;19917;-88
2023/06/25 13:56:09;;;;;;;;;;;;;;;9.29;100.00;99583.84;5036238;28;19936;-88
2023/06/25 13:58:37;;;;;;;;;;;;;;;9.25;100.00;99578.69;5023458;28;20015;-88
2023/06/25 14:01:03;;;;;;;;;;;;;;;9.29;100.00;99589.13;5035650;28;19925;-88
2023/06/25 14:03:32;;;;;;;;;;;;;;;9.92;100.00;99584.69;5062348;28;20011;-87
2023/06/25 14:05:57;;;;;;;;;;;;;;;10.42;100.00;99577.22;5045620;28;19917;-90
2023/06/25 14:08:22;;;;;;;;;;;;;;;10.65;100.00;99582.34;5063658;28;19924;-88
2023/06/25 14:10:48;;;;;;;;;;;;;;;10.83;100.00;99577.13;5063044;28;19975;-88
2023/06/25 14:13:13;;;;;;;;;;;;;;;10.26;100.00;99583.22;5062788;28;19939;-88
2023/06/25 14:15:39;;;;;;;;;;;;;;;9.89;100.00;99579.53;5061535;28;19916;-87
2023/06/25 14:18:04;;;;;;;;;;;;;;;9.73;100.00;99583.75;5045005;28;20500;-87
2023/06/25 14:20:30;;;;;;;;;;;;;;;9.70;100.00;99568.00;5063485;28;20022;-87
2023/06/25 14:22:57;;;;;;;;;;;;;;;9.59;100.00;99566.69;5045258;28;19986;-88
2023/06/25 14:25:22;;;;;;;;;;;;;;;9.57;100.00;99562.38;5061883;28;20325;-88
2023/06/25 14:27:48;;;;;;;;;;;;;;;9.56;100.00;99564.19;5044652;28;19926;-87
2023/06/25 14:30:13;;;;;;;;;;;;;;;9.51;100.00;99566.16;5061846;28;19916;-87
2023/06/25 14:32:38;;;;;;;;;;;;;;;9.43;100.00;99562.97;5062877;28;19923;-88
2023/06/25 14:35:03;;;;;;;;;;;;;;;9.34;100.00;99555.44;5062654;28;19924;-86
2023/06/25 14:37:29;;;;;;;;;;;;;;;9.38;100.00;99557.88;5044636;28;19916;-88
2023/06/25 14:39:54;;;;;;;;;;;;;;;9.36;100.00;99561.50;5062866;28;19916;-86
2023/06/25 14:42:19;;;;;;;;;;;;;;;9.35;100.00;99552.72;5044642;28;19956;-86
2023/06/25 14:44:45;;;;;;;;;;;;;;;9.33;100.00;99548.41;5043390;28;20061;-87
2023/06/25 14:47:11;;;;;;;;;;;;;;;9.37;100.00;99558.78;5062563;28;19981;-87
2023/06/25 14:49:36;;;;;;;;;;;;;;;9.34;100.00;99540.41;5062535;28;20363;-87
2023/06/25 14:52:02;;;;;;;;;;;;;;;9.30;100.00;99548.53;5044335;28;19923;-87
2023/06/25 14:54:52;;;;;;;;;;;;;;;9.28;100.00;99540.66;5062156;28;19994;-91
2023/06/25 14:57:17;;;;;;;;;;;;;;;9.32;100.00;99541.38;5061962;28;19920;-87
2023/06/25 14:59:43;;;;;;;;;;;;;;;9.35;100.00;99546.56;5043424;28;19919;-87
2023/06/25 15:02:08;;;;;;;;;;;;;;;9.30;100.00;99543.25;5044417;28;19987;-89
2023/06/25 15:04:33;;;;;;;;;;;;;;;9.94;100.00;99542.25;5044043;28;20287;-88
2023/06/25 15:06:58;;;;;;;;;;;;;;;10.53;100.00;99545.84;5061801;28;20015;-87
2023/06/25 15:09:24;;;;;;;;;;;;;;;10.75;100.00;99558.06;5062390;28;19917;-87
2023/06/25 15:11:49;;;;;;;;;;;;;;;10.94;100.00;99552.75;5062043;28;19916;-87
2023/06/25 15:14:14;;;;;;;;;;;;;;;10.45;100.00;99550.59;5060630;28;19916;-87
2023/06/25 15:16:42;;;;;;;;;;;;;;;9.94;100.00;99548.44;5043870;28;20011;-87
2023/06/25 15:19:07;;;;;;;;;;;;;;;9.82;100.00;99546.31;5062228;28;19920;-87
2023/06/25 15:21:32;;;;;;;;;;;;;;;9.71;100.00;99538.00;5044030;28;19917;-88
2023/06/25 15:23:58;;;;;;;;;;;;;;;9.64;100.00;99534.75;5061662;28;19920;-90
2023/06/25 15:26:23;;;;;;;;;;;;;;;9.59;100.00;99532.31;5044198;28;19966;-88
2023/06/25 15:28:48;;;;;;;;;;;;;;;9.51;100.00;99531.78;5062137;28;19916;-88
2023/06/25 15:31:14;;;;;;;;;;;;;;;9.53;100.00;99526.44;5060554;28;19917;-86
2023/06/25 15:33:39;;;;;;;;;;;;;;;9.52;100.00;99528.19;5061439;28;19923;-86
2023/06/25 15:36:04;;;;;;;;;;;;;;;9.50;100.00;99530.03;5062029;28;19971;-89
2023/06/25 15:38:29;;;;;;;;;;;;;;;9.49;100.00;99525.66;5061611;28;19968;-86
2023/06/25 15:40:56;;;;;;;;;;;;;;;9.98;100.00;99520.88;5061404;28;20015;-84
2023/06/25 15:43:21;;;;;;;;;;;;;;;10.52;100.00;99525.56;5061677;28;19920;-86
2023/06/25 15:45:46;;;;;;;;;;;;;;;10.82;100.00;99527.72;5060866;28;20477;-87
2023/06/25 15:48:12;;;;;;;;;;;;;;;10.96;100.00;99527.91;5061893;28;19927;-87
2023/06/25 15:50:38;;;;;;;;;;;;;;;10.43;100.00;99528.63;5061412;28;20368;-87
2023/06/25 15:53:05;;;;;;;;;;;;;;;9.98;100.00;99528.84;5043670;28;20425;-87
2023/06/25 15:55:30;;;;;;;;;;;;;;;9.83;100.00;99521.59;5061712;28;19927;-87
2023/06/25 15:57:55;;;;;;;;;;;;;;;9.69;100.00;99516.03;5061331;28;19921;-87
2023/06/25 16:00:20;;;;;;;;;;;;;;;9.60;100.00;99504.91;5060022;28;20401;-87
2023/06/25 16:02:46;;;;;;;;;;;;;;;9.57;100.00;99510.38;5061606;28;19928;-87
2023/06/25 16:05:11;;;;;;;;;;;;;;;9.53;100.00;99505.25;5044325;28;19920;-86
2023/06/25 16:07:37;;;;;;;;;;;;;;;9.51;100.00;99504.44;5061434;28;19917;-87
2023/06/25 16:10:02;;;;;;;;;;;;;;;9.45;100.00;99513.53;5049446;28;19920;-87
2023/06/25 16:12:28;;;;;;;;;;;;;;;9.46;100.00;99509.94;5039779;28;20372;-86
2023/06/25 16:14:59;;;;;;;;;;;;;;;9.49;100.00;99512.44;5058866;28;20300;-86
2023/06/25 16:17:24;;;;;;;;;;;;;;;9.48;100.00;99510.75;5043539;28;20411;-87
2023/06/25 16:19:49;;;;;;;;;;;;;;;9.42;100.00;99513.66;5042983;28;20020;-84
2023/06/25 16:22:14;;;;;;;;;;;;;;;9.45;100.00;99510.88;5061058;28;19923;-87
2023/06/25 16:24:47;;;;;;;;;;;;;;;10.18;100.00;99503.28;5060233;28;19923;-87
2023/06/25 16:27:13;;;;;;;;;;;;;;;10.60;100.00;99502.22;5043182;28;19981;-86
2023/06/25 16:29:38;;;;;;;;;;;;;;;10.85;100.00;99509.84;5041086;28;19925;-86
2023/06/25 16:32:04;;;;;;;;;;;;;;;16.44;100.00;99468.53;5044340;28;20725;-89
2023/06/25 16:34:29;;;;;;;;;;;;;;;11.57;100.00;99491.28;5042037;28;19926;-89
2023/06/25 16:37:08;;;;;;;;;;;;;;;10.82;100.00;99502.06;5060646;28;20386;-92
2023/06/25 16:39:33;;;;;;;;;;;;;;;10.55;100.00;99504.22;5039157;28;19960;-90
2023/06/25 16:42:01;;;;;;;;;;;;;;;10.34;100.00;99501.66;5039900;28;20324;-90
2023/06/25 16:47:31;;;;;;;;;;;;;;;10.16;100.00;99498.03;5015028;28;20412;-89
2023/06/25 16:49:58;;;;;;;;;;;;;;;10.04;100.00;99481.88;5052405;28;19912;-88
2023/06/25 16:52:23;;;;;;;;;;;;;;;12.48;100.00;99482.00;5064611;28;20294;-89
2023/06/25 16:54:48;;;;;;;;;;;;;;;10.71;100.00;99475.22;5046505;28;19923;-88
2023/06/25 16:57:16;;;;;;;;;;;;;;;10.23;100.00;99482.72;5061842;28;19920;-89
2023/06/25 16:59:42;;;;;;;;;;;;;;;10.12;100.00;99485.00;5056530;28;19916;-92
2023/06/25 17:02:15;;;;;;;;;;;;;;;10.08;100.00;99484.28;5044596;28;19928;-90
2023/06/25 17:04:40;;;;;;;;;;;;;;;10.03;100.00;99486.28;5047952;28;19923;-89
2023/06/25 17:07:06;;;;;;;;;;;;;;;10.01;100.00;99488.16;5064523;28;20338;-90
2023/06/25 17:09:32;;;;;;;;;;;;;;;9.97;100.00;99487.44;5064390;28;19923;-89
2023/06/25 17:11:58;;;;;;;;;;;;;;;9.95;100.00;99489.25;5064142;28;19985;-90
2023/06/25 17:14:23;;;;;;;;;;;;;;;9.87;100.00;99486.09;5063512;28;19917;-90
2023/06/25 17:16:49;;;;;;;;;;;;;;;9.95;100.00;99481.31;5045929;28;19970;-89
2023/06/25 17:19:20;;;;;;;;;;;;;;;10.41;100.00;99485.47;5064849;28;19917;-91
2023/06/25 17:21:46;;;;;;;;;;;;;;;11.00;100.00;99484.38;5063520;28;19924;-90
2023/06/25 17:24:11;;;;;;;;;;;;;;;11.21;100.00;99487.75;5064007;28;20330;-86
2023/06/25 17:26:37;;;;;;;;;;;;;;;11.27;100.00;99486.59;5045486;28;19932;-90
2023/06/25 17:29:04;;;;;;;;;;;;;;;10.56;100.00;99486.53;5046195;28;19923;-90
2023/06/25 17:32:02;;;;;;;;;;;;;;;;;;;;;
2023/06/25 17:34:27;;;;;;;;;;;;;;;10.25;100.00;99483.50;5063385;28;19927;-90
2023/06/25 17:36:55;;;;;;;;;;;;;;;10.11;100.00;99480.63;5046200;28;19916;-89
2023/06/25 17:39:21;;;;;;;;;;;;;;;10.09;100.00;99482.50;5046355;28;19917;-89
2023/06/25 17:41:48;;;;;;;;;;;;;;;10.05;100.00;99478.25;5064921;28;19921;-90
2023/06/25 17:44:14;;;;;;;;;;;;;;;9.97;100.00;99482.13;5063884;28;19921;-90
2023/06/25 17:46:43;;;;;;;;;;;;;;;9.91;100.00;99476.25;5045997;28;19916;-91
2023/06/25 17:49:21;;;;;;;;;;;;;;;9.95;100.00;99483.97;5045079;28;19925;-88
2023/06/25 17:51:47;;;;;;;;;;;;;;;9.94;100.00;99482.28;5045057;28;19924;-89
2023/06/25 17:54:15;;;;;;;;;;;;;;;9.89;100.00;99489.56;5047537;28;20003;-94
2023/06/25 17:56:43;;;;;;;;;;;;;;;9.85;100.00;99484.47;5045678;28;19917;-88
2023/06/25 17:59:08;;;;;;;;;;;;;;;9.80;100.00;99489.97;5042896;28;19925;-89
2023/06/25 18:02:21;;;;;;;;;;;;;;;9.86;100.00;99488.81;5060670;28;19928;-95
2023/06/25 18:04:48;;;;;;;;;;;;;;;9.81;100.00;99491.66;5061984;28;19920;-90
2023/06/25 18:07:18;;;;;;;;;;;;;;;9.78;100.00;99491.81;5063489;28;20015;-92
2023/06/25 18:09:44;;;;;;;;;;;;;;;9.79;100.00;99488.25;5044361;28;20415;-89
2023/06/25 18:12:09;;;;;;;;;;;;;;;9.75;100.00;99484.88;5061761;28;20047;-90
2023/06/25 18:15:07;;;;;;;;;;;;;;;9.78;100.00;99491.81;5043503;28;20379;-94
2023/06/25 18:17:34;;;;;;;;;;;;;;;9.77;100.00;99488.31;4978018;28;19974;-90
2023/06/25 18:19:59;;;;;;;;;;;;;;;9.68;100.00;99490.50;5060334;28;19925;-88
2023/06/25 18:22:25;;;;;;;;;;;;;;;9.73;100.00;99493.81;5044971;28;20086;-89
2023/06/25 18:24:50;;;;;;;;;;;;;;;9.74;100.00;99496.38;5045688;28;19917;-89
2023/06/25 18:27:15;;;;;;;;;;;;;;;9.77;100.00;99490.09;5044938;28;19924;-89
2023/06/25 18:29:40;;;;;;;;;;;;;;;9.73;100.00;99493.81;5041737;28;20054;-89
2023/06/25 18:32:06;;;;;;;;;;;;;;;9.75;100.00;99498.09;5037389;28;19927;-86
2023/06/25 18:34:34;;;;;;;;;;;;;;;9.66;100.00;99493.22;5046069;28;20486;-89
2023/06/25 18:36:59;;;;;;;;;;;;;;;9.66;100.00;99495.00;5039605;28;19925;-88
2023/06/25 18:39:24;;;;;;;;;;;;;;;9.66;100.00;99493.22;5042283;28;19927;-87
2023/06/25 18:41:49;;;;;;;;;;;;;;;9.69;100.00;99492.22;5052199;28;19921;-89
2023/06/25 18:44:15;;;;;;;;;;;;;;;9.63;100.00;99493.34;5043600;28;20506;-88
2023/06/25 18:46:40;;;;;;;;;;;;;;;9.62;100.00;99495.16;5045760;28;19924;-89
2023/06/25 18:49:06;;;;;;;;;;;;;;;9.69;100.00;99486.94;5061879;28;19917;-86
2023/06/25 18:51:32;;;;;;;;;;;;;;;9.60;100.00;99489.03;5042942;28;19927;-88
2023/06/25 18:53:57;;;;;;;;;;;;;;;9.68;100.00;99485.22;5062814;28;20284;-89
2023/06/25 18:56:23;;;;;;;;;;;;;;;9.67;100.00;99494.06;5062225;28;19922;-89
2023/06/25 18:58:48;;;;;;;;;;;;;;;9.66;100.00;99493.22;5064433;28;19967;-88
2023/06/25 19:01:18;;;;;;;;;;;;;;;9.61;100.00;99490.78;5060790;28;19924;-92
2023/06/25 19:03:43;;;;;;;;;;;;;;;9.67;100.00;99494.06;5061801;28;19986;-88
2023/06/25 19:06:09;;;;;;;;;;;;;;;9.61;100.00;99496.06;5044817;28;19920;-89
2023/06/25 19:08:37;;;;;;;;;;;;;;;9.63;100.00;99496.00;5043853;28;20007;-90
2023/06/25 19:11:02;;;;;;;;;;;;;;;9.63;100.00;99493.34;5042720;28;19947;-86
2023/06/25 19:13:28;;;;;;;;;;;;;;;9.64;100.00;99493.28;5061728;28;19916;-88
2023/06/25 19:15:53;;;;;;;;;;;;;;;9.61;100.00;99485.47;5060518;28;19956;-88
2023/06/25 19:18:18;;;;;;;;;;;;;;;9.66;100.00;99485.28;5062257;28;20587;-89
2023/06/25 19:20:43;;;;;;;;;;;;;;;9.67;100.00;99483.47;5064027;28;20011;-88
2023/06/25 19:23:09;;;;;;;;;;;;;;;9.61;100.00;99488.13;5062002;28;19938;-89
2023/06/25 19:25:37;;;;;;;;;;;;;;;9.59;100.00;99494.44;5044238;28;19928;-89
2023/06/25 19:28:03;;;;;;;;;;;;;;;9.67;100.00;99497.59;5060970;28;19924;-88
2023/06/25 19:30:28;;;;;;;;;;;;;;;9.63;100.00;99496.00;5059938;28;19916;-87
2023/06/25 19:32:53;;;;;;;;;;;;;;;9.60;100.00;99496.97;5061926;28;19917;-88
2023/06/25 19:35:24;;;;;;;;;;;;;;;9.66;100.00;99497.66;5060868;28;19924;-89
2023/06/25 19:37:50;;;;;;;;;;;;;;;9.64;100.00;99495.94;5045307;28;20003;-89
2023/06/25 19:40:15;;;;;;;;;;;;;;;9.63;100.00;99504.78;5043758;28;20031;-89
2023/06/25 19:42:41;;;;;;;;;;;;;;;9.63;100.00;99504.78;5043185;28;19970;-88
2023/06/25 19:45:07;;;;;;;;;;;;;;;9.68;100.00;99503.72;5039641;28;19924;-89
2023/06/25 19:47:32;;;;;;;;;;;;;;;9.76;100.00;99505.09;5041615;28;19921;-88
2023/06/25 19:49:57;;;;;;;;;;;;;;;9.70;100.00;99507.16;5043354;28;19924;-88
2023/06/25 19:52:23;;;;;;;;;;;;;;;9.70;100.00;99504.50;5058714;28;20516;-89
2023/06/25 19:54:48;;;;;;;;;;;;;;;9.68;100.00;99509.88;5042593;28;20291;-88
2023/06/25 19:57:13;;;;;;;;;;;;;;;9.70;100.00;99515.09;5043896;28;19917;-89
2023/06/25 19:59:39;;;;;;;;;;;;;;;9.71;100.00;99516.81;5060900;28;20301;-90
2023/06/25 20:02:05;;;;;;;;;;;;;;;9.68;100.00;99509.88;5043985;28;20018;-90
2023/06/25 20:04:30;;;;;;;;;;;;;;;9.75;100.00;99523.72;5061902;28;20016;-89
2023/06/25 20:06:55;;;;;;;;;;;;;;;9.69;100.00;99516.03;5042651;28;20264;-89
2023/06/25 20:09:20;;;;;;;;;;;;;;;9.70;100.00;99515.09;5061440;28;19924;-88
2023/06/25 20:11:46;;;;;;;;;;;;;;;9.69;100.00;99516.91;5043493;28;19921;-89
2023/06/25 20:14:12;;;;;;;;;;;;;;;9.66;100.00;99521.47;5061198;28;20349;-92
2023/06/25 20:16:37;;;;;;;;;;;;;;;9.73;100.00;99521.13;5043265;28;19974;-89
2023/06/25 20:19:02;;;;;;;;;;;;;;;9.70;100.00;99520.38;5061744;28;19916;-90
2023/06/25 20:21:27;;;;;;;;;;;;;;;9.70;100.00;99523.91;5043931;28;20512;-90
2023/06/25 20:23:53;;;;;;;;;;;;;;;9.67;100.00;99524.03;5045538;28;19912;-90
2023/06/25 20:26:18;;;;;;;;;;;;;;;9.71;100.00;99524.75;5047149;28;20014;-89
2023/06/25 20:28:43;;;;;;;;;;;;;;;9.69;100.00;99526.63;5046505;28;20363;-89
2023/06/25 20:31:09;;;;;;;;;;;;;;;9.72;100.00;99526.50;5047505;28;19920;-90
2023/06/25 20:33:34;;;;;;;;;;;;;;;9.70;100.00;99530.97;5064838;28;19923;-90
2023/06/25 20:35:59;;;;;;;;;;;;;;;9.70;100.00;99531.84;5046895;28;19924;-90
2023/06/25 20:38:24;;;;;;;;;;;;;;;9.73;100.00;99530.84;5047898;28;19920;-90
2023/06/25 20:40:50;;;;;;;;;;;;;;;9.69;100.00;99535.41;5064784;28;19967;-89
2023/06/25 20:43:15;;;;;;;;;;;;;;;9.70;100.00;99533.63;5046646;28;19916;-89
2023/06/25 20:45:40;;;;;;;;;;;;;;;9.64;100.00;99530.31;5045848;28;19921;-90
2023/06/25 20:48:06;;;;;;;;;;;;;;;9.71;100.00;99530.06;5065194;28;19923;-89
2023/06/25 20:50:31;;;;;;;;;;;;;;;9.73;100.00;99537.00;5062838;28;20054;-90
2023/06/25 20:52:57;;;;;;;;;;;;;;;9.70;100.00;99525.69;5042639;28;19921;-91
2023/06/25 20:55:22;;;;;;;;;;;;;;;9.71;100.00;99527.41;5063918;28;19931;-91
2023/06/25 20:57:47;;;;;;;;;;;;;;;9.70;100.00;99530.97;5046742;28;19927;-90
2023/06/25 21:00:13;;;;;;;;;;;;;;;9.69;100.00;99539.84;5043296;28;20440;-89
2023/06/25 21:02:38;;;;;;;;;;;;;;;9.71;100.00;99528.25;5064131;28;19995;-89
2023/06/25 21:05:03;;;;;;;;;;;;;;;9.75;100.00;99537.78;5063173;28;19928;-89
2023/06/25 21:07:29;;;;;;;;;;;;;;;9.76;100.00;99536.00;5062864;28;19942;-91
2023/06/25 21:09:54;;;;;;;;;;;;;;;9.79;100.00;99538.50;5064407;28;20398;-90
2023/06/25 21:12:19;;;;;;;;;;;;;;;9.74;100.00;99537.88;5064660;28;19917;-90
2023/06/25 21:14:44;;;;;;;;;;;;;;;9.74;100.00;99537.88;5060744;28;19925;-89
2023/06/25 21:17:10;;;;;;;;;;;;;;;9.77;100.00;99535.94;5044327;28;20279;-89
2023/06/25 21:19:35;;;;;;;;;;;;;;;9.70;100.00;99536.25;5042634;28;19931;-88
2023/06/25 21:22:00;;;;;;;;;;;;;;;9.67;100.00;99539.91;5061080;28;19998;-90
2023/06/25 21:24:25;;;;;;;;;;;;;;;9.73;100.00;99538.78;5039438;28;19924;-88
2023/06/25 21:26:51;;;;;;;;;;;;;;;9.73;100.00;99539.66;5042351;28;19986;-88
2023/06/25 21:29:16;;;;;;;;;;;;;;;9.74;100.00;99532.56;5042915;28;19924;-89
2023/06/25 21:31:41;;;;;;;;;;;;;;;9.68;100.00;99535.47;5045021;28;20326;-89
2023/06/25 21:34:06;;;;;;;;;;;;;;;9.71;100.00;99538.00;5061182;28;19931;-87
2023/06/25 21:36:32;;;;;;;;;;;;;;;9.67;100.00;99536.38;5058294;28;19920;-88
2023/06/25 21:38:57;;;;;;;;;;;;;;;9.69;100.00;99532.75;5044950;28;19920;-90
2023/06/25 21:41:22;;;;;;;;;;;;;;;9.66;100.00;99530.25;5061320;28;19994;-88
2023/06/25 21:43:49;;;;;;;;;;;;;;;9.75;100.00;99540.44;5043822;28;20380;-89
2023/06/25 21:46:14;;;;;;;;;;;;;;;9.69;100.00;99539.84;5062962;28;19912;-88
2023/06/25 21:48:40;;;;;;;;;;;;;;;9.67;100.00;99539.03;5045759;28;19939;-89
2023/06/25 21:51:05;;;;;;;;;;;;;;;9.68;100.00;99541.63;5046342;28;20775;-89
2023/06/25 21:53:34;;;;;;;;;;;;;;;9.67;100.00;99541.69;5044954;28;20356;-89
2023/06/25 21:56:02;;;;;;;;;;;;;;;9.72;100.00;99537.06;5045984;28;20295;-90
2023/06/25 21:58:27;;;;;;;;;;;;;;;9.67;100.00;99537.28;5048034;28;19920;-89
2023/06/25 22:00:52;;;;;;;;;;;;;;;9.62;100.00;99545.41;5042371;28;19930;-89
2023/06/25 22:03:21;;;;;;;;;;;;;;;9.69;100.00;99540.69;5041866;28;20010;-93
2023/06/25 22:05:46;;;;;;;;;;;;;;;9.62;100.00;99542.75;5061499;28;20339;-90
2023/06/25 22:08:12;;;;;;;;;;;;;;;9.62;100.00;99539.22;5044820;28;20437;-89
2023/06/25 22:10:37;;;;;;;;;;;;;;;9.58;100.00;99541.16;5046044;28;19928;-88
2023/06/25 22:13:03;;;;;;;;;;;;;;;9.60;100.00;99547.22;5057505;28;19928;-88
2023/06/25 22:15:29;;;;;;;;;;;;;;;9.63;100.00;99547.09;5059804;28;19924;-88
2023/06/25 22:17:56;;;;;;;;;;;;;;;9.61;100.00;99548.13;5063094;28;19921;-90
2023/06/25 22:20:22;;;;;;;;;;;;;;;9.66;100.00;99551.41;5063237;28;20006;-88
2023/06/25 22:22:47;;;;;;;;;;;;;;;9.66;100.00;99550.56;5063474;28;20007;-89
2023/06/25 22:25:22;;;;;;;;;;;;;;;9.66;100.00;99540.84;5063371;28;20038;-90
2023/06/25 22:27:47;;;;;;;;;;;;;;;9.57;100.00;99547.38;5043221;28;19929;-88
2023/06/25 22:30:13;;;;;;;;;;;;;;;9.62;100.00;99549.81;5038955;28;19921;-88
2023/06/25 22:32:39;;;;;;;;;;;;;;;9.70;100.00;99544.19;5060359;28;19925;-88
2023/06/25 22:35:04;;;;;;;;;;;;;;;9.61;100.00;99548.13;5042309;28;19921;-87
2023/06/25 22:37:29;;;;;;;;;;;;;;;9.63;100.00;99552.41;5059596;28;20011;-88
2023/06/25 22:40:05;;;;;;;;;;;;;;;;;;;;;
2023/06/25 22:42:30;;;;;;;;;;;;;;;9.60;100.00;99547.22;5062510;28;19917;-89
2023/06/25 22:44:56;;;;;;;;;;;;;;;9.62;100.00;99544.53;5044653;28;20018;-88
2023/06/25 22:47:21;;;;;;;;;;;;;;;9.69;100.00;99535.41;5044932;28;19927;-89
2023/06/25 22:49:46;;;;;;;;;;;;;;;9.68;100.00;99546.06;5059904;28;21455;-88
2023/06/25 22:52:12;;;;;;;;;;;;;;;9.72;100.00;99551.16;5058789;28;19931;-88
2023/06/25 22:54:37;;;;;;;;;;;;;;;9.71;100.00;99546.78;5058567;28;20275;-88
2023/06/25 22:57:03;;;;;;;;;;;;;;;9.73;100.00;99547.59;5053608;28;19931;-88
2023/06/25 22:59:28;;;;;;;;;;;;;;;9.70;100.00;99545.09;5057044;28;19920;-89
2023/06/25 23:01:54;;;;;;;;;;;;;;;9.67;100.00;99537.28;5060400;28;20011;-88
2023/06/25 23:04:19;;;;;;;;;;;;;;;9.64;100.00;99534.75;5043743;28;19966;-88
2023/06/25 23:06:44;;;;;;;;;;;;;;;9.65;100.00;99536.47;5039550;28;19927;-88
2023/06/25 23:09:50;;;;;;;;;;;;;;;9.62;100.00;99542.75;5043429;28;19927;-88
2023/06/25 23:12:15;;;;;;;;;;;;;;;9.62;100.00;99533.94;5051307;28;19925;-89
2023/06/25 23:14:42;;;;;;;;;;;;;;;9.66;100.00;99539.97;5057859;28;20341;-88
2023/06/25 23:17:08;;;;;;;;;;;;;;;9.71;100.00;99535.34;5062204;28;20367;-88
2023/06/25 23:19:33;;;;;;;;;;;;;;;9.68;100.00;99538.13;5062203;28;19923;-87
2023/06/25 23:22:02;;;;;;;;;;;;;;;9.74;100.00;99538.72;5043210;28;20429;-88
2023/06/25 23:24:36;;;;;;;;;;;;;;;9.75;100.00;99542.25;5043463;28;20002;-88
2023/06/25 23:27:03;;;;;;;;;;;;;;;9.69;100.00;99539.84;5062556;28;19920;-88
2023/06/25 23:29:29;;;;;;;;;;;;;;;9.78;100.00;99540.31;5040087;28;19924;-88
